Time;durP1;ratioP1;P1;durP2;ratioP2;P2;SDS_P1;SDS_P2;PMS_P1;PMS_P2;Temp;Humidity;BMP_temperature;BMP_pressure;BME280_temperature;BME280_humidity;BME280_pressure;Samples;Min_cycle;Max_cycle;Signal;HPM_P1;HPM_P2
2022/12/19 00:00:44;;;;;;;30.87;19.43;;;;;;;;;;5066007;28;20233;-68
2022/12/19 00:03:12;;;;;;;34.00;21.27;;;;;;;;;;5068166;28;20195;-69
2022/12/19 00:05:39;;;;;;;33.03;21.40;;;;;;;;;;5067762;28;20233;-69
2022/12/19 00:08:06;;;;;;;34.10;21.97;;;;;;;;;;5067735;28;20202;-68
2022/12/19 00:10:34;;;;;;;34.77;21.20;;;;;;;;;;5069126;28;20195;-68
2022/12/19 00:13:01;;;;;;;31.77;20.10;;;;;;;;;;5067514;28;20194;-68
2022/12/19 00:15:28;;;;;;;32.93;22.10;;;;;;;;;;5067034;28;20207;-69
2022/12/19 00:17:56;;;;;;;34.37;21.90;;;;;;;;;;5066759;28;20285;-68
2022/12/19 00:20:23;;;;;;;32.43;21.40;;;;;;;;;;5064344;28;20207;-69
2022/12/19 00:22:51;;;;;;;34.90;21.73;;;;;;;;;;5069078;28;20204;-69
2022/12/19 00:25:18;;;;;;;30.27;20.73;;;;;;;;;;5067735;28;20210;-68
2022/12/19 00:27:45;;;;;;;34.37;21.03;;;;;;;;;;5066098;28;20400;-69
2022/12/19 00:30:12;;;;;;;33.60;20.93;;;;;;;;;;5067119;28;20210;-69
2022/12/19 00:32:39;;;;;;;35.93;22.30;;;;;;;;;;5068144;28;20195;-68
2022/12/19 00:35:08;;;;;;;29.50;20.33;;;;;;;;;;5063053;28;20203;-68
2022/12/19 00:37:35;;;;;;;32.97;20.63;;;;;;;;;;5067926;28;20210;-69
2022/12/19 00:40:03;;;;;;;32.00;21.10;;;;;;;;;;5064775;28;20388;-69
2022/12/19 00:42:30;;;;;;;29.70;19.93;;;;;;;;;;5065251;28;21689;-67
2022/12/19 00:44:57;;;;;;;31.37;20.07;;;;;;;;;;5069131;28;20205;-68
2022/12/19 00:47:24;;;;;;;31.27;20.63;;;;;;;;;;5070003;28;20233;-69
2022/12/19 00:49:51;;;;;;;30.53;19.00;;;;;;;;;;5068463;28;20214;-69
2022/12/19 00:52:19;;;;;;;31.23;18.87;;;;;;;;;;5069779;28;20213;-69
2022/12/19 00:54:47;;;;;;;28.20;18.17;;;;;;;;;;5070323;28;20198;-68
2022/12/19 00:57:14;;;;;;;31.17;19.00;;;;;;;;;;5062930;28;20197;-68
2022/12/19 00:59:41;;;;;;;35.57;20.83;;;;;;;;;;5063592;28;20205;-68
2022/12/19 01:02:08;;;;;;;31.13;20.13;;;;;;;;;;5068614;28;20199;-69
2022/12/19 01:04:35;;;;;;;31.30;19.37;;;;;;;;;;5067826;28;20230;-68
2022/12/19 01:07:04;;;;;;;30.07;19.63;;;;;;;;;;5064784;28;20229;-68
2022/12/19 01:09:33;;;;;;;28.07;19.37;;;;;;;;;;5067073;28;20206;-69
2022/12/19 01:14:45;;;;;;;33.90;21.07;;;;;;;;;;5068022;28;20193;-68
2022/12/19 01:17:12;;;;;;;30.60;19.53;;;;;;;;;;5068800;28;20199;-67
2022/12/19 01:19:40;;;;;;;29.37;19.47;;;;;;;;;;5069793;28;20198;-68
2022/12/19 01:22:07;;;;;;;30.20;19.13;;;;;;;;;;5063637;28;20207;-68
2022/12/19 01:24:35;;;;;;;30.63;19.70;;;;;;;;;;5067549;28;20207;-68
2022/12/19 01:27:03;;;;;;;29.27;17.57;;;;;;;;;;5064509;28;20221;-69
2022/12/19 01:29:30;;;;;;;30.10;19.73;;;;;;;;;;5062964;28;20214;-67
2022/12/19 01:31:58;;;;;;;28.40;18.53;;;;;;;;;;5061844;28;20213;-68
2022/12/19 01:34:25;;;;;;;30.97;19.70;;;;;;;;;;5066550;28;20198;-69
2022/12/19 01:36:52;;;;;;;31.30;19.33;;;;;;;;;;5060427;28;20202;-69
2022/12/19 01:39:19;;;;;;;32.33;19.80;;;;;;;;;;5064715;28;20249;-69
2022/12/19 01:41:48;;;;;;;34.43;21.80;;;;;;;;;;5065449;28;20202;-68
2022/12/19 01:44:15;;;;;;;36.20;21.10;;;;;;;;;;5065162;28;20205;-68
2022/12/19 01:46:43;;;;;;;28.17;18.60;;;;;;;;;;5066058;28;20209;-67
2022/12/19 01:49:16;;;;;;;33.20;19.80;;;;;;;;;;5063087;28;20202;-69
2022/12/19 01:51:45;;;;;;;31.13;20.23;;;;;;;;;;5066279;28;20206;-67
2022/12/19 01:54:14;;;;;;;27.80;18.43;;;;;;;;;;5066221;28;20213;-69
2022/12/19 01:56:43;;;;;;;30.97;18.93;;;;;;;;;;5065902;28;20199;-69
2022/12/19 01:59:14;;;;;;;32.50;19.77;;;;;;;;;;5057795;28;20198;-68
2022/12/19 02:01:42;;;;;;;31.83;21.00;;;;;;;;;;5066547;28;20215;-67
2022/12/19 02:04:10;;;;;;;28.73;19.13;;;;;;;;;;5066833;28;20235;-68
2022/12/19 02:06:39;;;;;;;31.73;20.20;;;;;;;;;;5068988;28;20203;-69
2022/12/19 02:09:06;;;;;;;32.03;20.40;;;;;;;;;;5065727;28;20201;-69
2022/12/19 02:11:33;;;;;;;31.73;20.77;;;;;;;;;;5069788;28;20206;-69
2022/12/19 02:14:00;;;;;;;31.20;19.73;;;;;;;;;;5067434;28;20206;-67
2022/12/19 02:16:35;;;;;;;33.87;21.33;;;;;;;;;;5071129;28;20194;-68
2022/12/19 02:19:10;;;;;;;33.47;21.10;;;;;;;;;;5062184;28;20187;-68
2022/12/19 02:21:52;;;;;;;31.47;20.13;;;;;;;;;;5071569;28;20198;-69
2022/12/19 02:24:39;;;;;;;33.97;20.40;;;;;;;;;;5064881;28;20210;-68
2022/12/19 02:27:22;;;;;;;34.13;21.47;;;;;;;;;;5067186;28;20214;-68
2022/12/19 02:30:03;;;;;;;34.63;20.43;;;;;;;;;;5067043;28;20212;-69
2022/12/19 02:32:33;;;;;;;32.97;20.70;;;;;;;;;;5066277;28;20518;-68
2022/12/19 02:35:06;;;;;;;33.60;21.57;;;;;;;;;;5066992;28;20207;-68
2022/12/19 02:37:35;;;;;;;36.50;21.43;;;;;;;;;;5064641;28;20218;-69
2022/12/19 02:40:06;;;;;;;34.23;21.60;;;;;;;;;;5070293;28;20210;-69
2022/12/19 02:42:35;;;;;;;32.87;21.40;;;;;;;;;;5069464;28;20199;-69
2022/12/19 02:45:03;;;;;;;34.67;20.20;;;;;;;;;;5072410;28;20221;-69
2022/12/19 02:47:31;;;;;;;31.43;20.57;;;;;;;;;;5072030;28;20222;-69
2022/12/19 02:50:00;;;;;;;30.37;20.80;;;;;;;;;;5069900;28;20195;-69
2022/12/19 02:52:44;;;;;;;34.77;22.07;;;;;;;;;;5070452;28;20203;-69
2022/12/19 02:55:13;;;;;;;37.13;21.50;;;;;;;;;;5064984;28;20199;-68
2022/12/19 02:57:44;;;;;;;34.50;20.70;;;;;;;;;;5069846;28;20191;-68
2022/12/19 03:00:13;;;;;;;32.80;18.87;;;;;;;;;;5068449;28;20207;-69
2022/12/19 03:02:44;;;;;;;36.60;18.50;;;;;;;;;;5069002;28;20428;-67
2022/12/19 03:05:15;;;;;;;30.70;18.33;;;;;;;;;;5066678;28;20238;-68
2022/12/19 03:07:47;;;;;;;35.10;19.57;;;;;;;;;;5066423;28;20231;-68
2022/12/19 03:10:19;;;;;;;25.80;15.03;;;;;;;;;;5068738;28;20199;-69
2022/12/19 03:12:47;;;;;;;31.43;18.70;;;;;;;;;;5068450;28;20215;-68
2022/12/19 03:15:15;;;;;;;33.37;18.50;;;;;;;;;;5067338;28;20207;-67
2022/12/19 03:17:42;;;;;;;31.00;17.93;;;;;;;;;;5071841;28;20202;-69
2022/12/19 03:20:11;;;;;;;31.97;18.67;;;;;;;;;;5067807;28;20203;-69
2022/12/19 03:22:39;;;;;;;33.73;19.27;;;;;;;;;;5069807;28;20218;-67
2022/12/19 03:25:07;;;;;;;32.53;18.67;;;;;;;;;;5067843;28;20229;-69
2022/12/19 03:27:36;;;;;;;29.40;17.30;;;;;;;;;;5063951;28;20211;-69
2022/12/19 03:30:05;;;;;;;33.10;18.27;;;;;;;;;;5069161;28;20203;-69
2022/12/19 03:32:34;;;;;;;31.77;18.13;;;;;;;;;;5067819;28;20195;-69
2022/12/19 03:35:04;;;;;;;30.27;17.83;;;;;;;;;;5069749;28;20225;-68
2022/12/19 03:37:33;;;;;;;30.13;17.50;;;;;;;;;;5065974;28;20215;-69
2022/12/19 03:40:09;;;;;;;32.40;17.70;;;;;;;;;;5065334;28;20202;-68
2022/12/19 03:45:26;;;;;;;32.67;17.47;;;;;;;;;;5069493;28;20206;-69
2022/12/19 03:47:57;;;;;;;31.70;17.43;;;;;;;;;;5067324;28;20219;-69
2022/12/19 03:50:25;;;;;;;28.77;17.63;;;;;;;;;;5069649;28;20203;-68
2022/12/19 03:52:55;;;;;;;28.80;16.80;;;;;;;;;;5070377;28;20199;-69
2022/12/19 03:55:27;;;;;;;28.13;16.93;;;;;;;;;;5068460;28;20207;-69
2022/12/19 03:57:57;;;;;;;29.90;17.57;;;;;;;;;;5067431;28;20284;-69
2022/12/19 04:00:25;;;;;;;27.60;16.70;;;;;;;;;;5068875;28;20199;-69
2022/12/19 04:02:54;;;;;;;28.80;17.00;;;;;;;;;;5065969;28;20230;-69
2022/12/19 04:05:22;;;;;;;28.27;16.20;;;;;;;;;;5066242;28;20234;-69
2022/12/19 04:07:50;;;;;;;27.10;16.37;;;;;;;;;;5067956;28;20215;-69
2022/12/19 04:10:18;;;;;;;27.97;15.67;;;;;;;;;;5067040;28;20200;-69
2022/12/19 04:12:49;;;;;;;24.97;15.97;;;;;;;;;;5068850;28;20191;-68
2022/12/19 04:15:17;;;;;;;27.77;16.50;;;;;;;;;;5062228;28;20200;-69
2022/12/19 04:17:46;;;;;;;25.27;15.60;;;;;;;;;;5062934;28;20195;-69
2022/12/19 04:20:14;;;;;;;27.90;15.70;;;;;;;;;;5064372;28;20294;-69
2022/12/19 04:22:43;;;;;;;28.63;16.80;;;;;;;;;;5067073;28;20207;-69
2022/12/19 04:25:12;;;;;;;26.90;16.17;;;;;;;;;;5063294;28;20211;-67
2022/12/19 04:27:41;;;;;;;27.00;15.97;;;;;;;;;;5056492;28;20218;-66
2022/12/19 04:30:13;;;;;;;27.97;16.77;;;;;;;;;;5064098;28;20206;-67
2022/12/19 04:32:46;;;;;;;28.13;16.63;;;;;;;;;;5052720;28;20204;-68
2022/12/19 04:35:13;;;;;;;25.10;15.60;;;;;;;;;;5060298;28;20203;-69
2022/12/19 04:37:41;;;;;;;30.23;17.20;;;;;;;;;;5062269;28;20200;-67
2022/12/19 04:40:09;;;;;;;25.90;15.83;;;;;;;;;;5058405;28;20198;-69
2022/12/19 04:42:36;;;;;;;27.13;17.53;;;;;;;;;;5067788;28;20481;-68
2022/12/19 04:45:05;;;;;;;31.40;17.57;;;;;;;;;;5068837;28;20210;-68
2022/12/19 04:47:34;;;;;;;30.57;17.57;;;;;;;;;;5060494;28;20217;-68
2022/12/19 04:50:01;;;;;;;27.97;17.03;;;;;;;;;;5057158;28;20201;-69
2022/12/19 04:52:28;;;;;;;26.13;16.57;;;;;;;;;;5067535;28;20206;-69
2022/12/19 04:54:55;;;;;;;26.77;17.37;;;;;;;;;;5056092;28;20194;-68
2022/12/19 04:57:22;;;;;;;26.93;16.70;;;;;;;;;;5056681;28;20214;-69
2022/12/19 04:59:50;;;;;;;27.73;16.70;;;;;;;;;;5061910;28;20194;-68
2022/12/19 05:02:17;;;;;;;26.33;17.03;;;;;;;;;;5058952;28;20213;-68
2022/12/19 05:04:45;;;;;;;25.93;16.60;;;;;;;;;;5056549;28;20231;-67
2022/12/19 05:07:14;;;;;;;26.67;15.37;;;;;;;;;;5061594;28;20203;-66
2022/12/19 05:09:41;;;;;;;29.67;16.90;;;;;;;;;;5063113;28;20290;-68
2022/12/19 05:12:09;;;;;;;30.17;16.20;;;;;;;;;;5064224;28;20206;-68
2022/12/19 05:14:36;;;;;;;21.57;14.13;;;;;;;;;;5063819;28;20213;-68
2022/12/19 05:17:03;;;;;;;25.23;15.97;;;;;;;;;;5065482;28;20210;-67
2022/12/19 05:19:30;;;;;;;27.17;16.00;;;;;;;;;;5065988;28;20222;-69
2022/12/19 05:21:59;;;;;;;24.63;16.17;;;;;;;;;;5064010;28;20202;-69
2022/12/19 05:24:26;;;;;;;27.73;16.40;;;;;;;;;;5064644;28;20203;-69
2022/12/19 05:26:53;;;;;;;28.27;17.23;;;;;;;;;;5062088;28;20213;-69
2022/12/19 05:29:20;;;;;;;34.27;20.27;;;;;;;;;;5056104;28;20222;-69
2022/12/19 05:31:47;;;;;;;30.70;18.50;;;;;;;;;;5057861;28;20210;-67
2022/12/19 05:34:14;;;;;;;29.03;17.97;;;;;;;;;;5060221;28;20214;-68
2022/12/19 05:36:41;;;;;;;33.13;20.97;;;;;;;;;;5067636;28;20207;-68
2022/12/19 05:39:10;;;;;;;29.57;19.37;;;;;;;;;;5065294;28;20194;-67
2022/12/19 05:41:37;;;;;;;34.83;22.10;;;;;;;;;;5064290;28;20207;-68
2022/12/19 05:44:04;;;;;;;35.50;22.13;;;;;;;;;;5071665;28;20195;-68
2022/12/19 05:46:32;;;;;;;30.53;19.90;;;;;;;;;;5066646;28;20217;-68
2022/12/19 05:48:59;;;;;;;35.63;22.43;;;;;;;;;;5068331;28;20211;-68
2022/12/19 05:51:26;;;;;;;35.10;22.90;;;;;;;;;;5066516;28;20492;-68
2022/12/19 05:53:53;;;;;;;32.77;20.73;;;;;;;;;;5069331;28;20209;-68
2022/12/19 05:56:22;;;;;;;29.27;18.30;;;;;;;;;;5071119;28;20226;-68
2022/12/19 05:58:49;;;;;;;30.13;17.37;;;;;;;;;;5072354;28;20199;-68
2022/12/19 06:01:18;;;;;;;24.13;16.13;;;;;;;;;;5072145;28;20515;-67
2022/12/19 06:03:45;;;;;;;25.57;16.57;;;;;;;;;;5071306;28;20199;-67
2022/12/19 06:06:13;;;;;;;29.10;16.73;;;;;;;;;;5074227;28;20207;-68
2022/12/19 06:08:41;;;;;;;28.40;16.50;;;;;;;;;;5072163;28;20222;-68
2022/12/19 06:11:09;;;;;;;26.20;16.13;;;;;;;;;;5070738;28;20207;-68
2022/12/19 06:13:37;;;;;;;26.73;16.27;;;;;;;;;;5069274;28;20203;-68
2022/12/19 06:16:06;;;;;;;29.40;17.37;;;;;;;;;;5066047;28;20195;-68
2022/12/19 06:18:33;;;;;;;26.93;15.73;;;;;;;;;;5069684;28;20242;-67
2022/12/19 06:21:01;;;;;;;27.00;15.80;;;;;;;;;;5065068;28;20256;-68
2022/12/19 06:23:29;;;;;;;25.43;16.37;;;;;;;;;;5069254;28;20230;-68
2022/12/19 06:25:57;;;;;;;25.87;15.37;;;;;;;;;;5072667;28;20207;-68
2022/12/19 06:28:24;;;;;;;26.47;15.50;;;;;;;;;;5067946;28;20215;-68
2022/12/19 06:30:53;;;;;;;24.87;15.27;;;;;;;;;;5059320;28;20245;-67
2022/12/19 06:33:20;;;;;;;26.93;16.17;;;;;;;;;;5064848;28;20210;-68
2022/12/19 06:35:47;;;;;;;23.73;15.10;;;;;;;;;;5069679;28;20206;-67
2022/12/19 06:38:14;;;;;;;24.73;16.13;;;;;;;;;;5067477;28;20202;-67
2022/12/19 06:43:27;;;;;;;29.97;19.30;;;;;;;;;;5064070;28;20216;-68
2022/12/19 06:45:57;;;;;;;24.53;16.23;;;;;;;;;;5072899;28;20199;-67
2022/12/19 06:48:24;;;;;;;23.93;14.83;;;;;;;;;;5063423;28;20234;-68
2022/12/19 06:50:51;;;;;;;27.23;15.80;;;;;;;;;;5070903;28;20203;-68
2022/12/19 06:53:18;;;;;;;21.93;14.20;;;;;;;;;;5066347;28;20199;-68
2022/12/19 06:55:45;;;;;;;23.27;13.93;;;;;;;;;;5064319;28;20229;-68
2022/12/19 06:58:12;;;;;;;19.80;13.73;;;;;;;;;;5071554;28;20207;-68
2022/12/19 07:00:39;;;;;;;24.47;15.07;;;;;;;;;;5066127;28;20203;-68
2022/12/19 07:03:09;;;;;;;20.17;13.30;;;;;;;;;;5069889;28;20215;-68
2022/12/19 07:05:36;;;;;;;22.40;14.20;;;;;;;;;;5070562;28;20239;-68
2022/12/19 07:08:03;;;;;;;24.63;13.93;;;;;;;;;;5064577;28;20474;-68
2022/12/19 07:10:31;;;;;;;21.87;13.40;;;;;;;;;;5062806;28;20301;-68
2022/12/19 07:12:58;;;;;;;23.83;14.13;;;;;;;;;;5062032;28;20226;-68
2022/12/19 07:15:25;;;;;;;21.87;13.87;;;;;;;;;;5072295;28;20226;-68
2022/12/19 07:17:52;;;;;;;19.97;12.87;;;;;;;;;;5071840;28;20195;-68
2022/12/19 07:20:21;;;;;;;22.27;13.50;;;;;;;;;;5067445;28;20386;-68
2022/12/19 07:22:48;;;;;;;19.87;13.37;;;;;;;;;;5068163;28;20484;-68
2022/12/19 07:25:16;;;;;;;19.10;13.03;;;;;;;;;;5063967;28;20205;-66
2022/12/19 07:27:43;;;;;;;23.13;13.60;;;;;;;;;;5066686;28;20428;-67
2022/12/19 07:30:11;;;;;;;19.50;12.67;;;;;;;;;;5064524;28;20212;-67
2022/12/19 07:32:38;;;;;;;19.37;12.40;;;;;;;;;;5064926;28;20208;-68
2022/12/19 07:35:06;;;;;;;18.60;11.67;;;;;;;;;;5057910;28;20276;-67
2022/12/19 07:37:35;;;;;;;21.00;12.10;;;;;;;;;;5056139;28;20202;-68
2022/12/19 07:40:02;;;;;;;16.70;11.63;;;;;;;;;;5065178;28;20217;-68
2022/12/19 07:42:29;;;;;;;20.63;12.37;;;;;;;;;;5066638;28;20210;-67
2022/12/19 07:44:56;;;;;;;17.03;11.83;;;;;;;;;;5065644;28;20195;-68
2022/12/19 07:47:26;;;;;;;21.07;14.00;;;;;;;;;;5064487;28;20218;-68
2022/12/19 07:49:53;;;;;;;19.73;12.63;;;;;;;;;;5070529;28;20309;-67
2022/12/19 07:52:24;;;;;;;18.33;11.73;;;;;;;;;;5068131;28;20203;-68
2022/12/19 07:54:54;;;;;;;26.90;16.60;;;;;;;;;;5067491;28;20701;-68
2022/12/19 07:57:23;;;;;;;23.00;15.40;;;;;;;;;;5067161;28;20203;-68
2022/12/19 07:59:51;;;;;;;18.17;13.43;;;;;;;;;;5065657;28;20192;-68
2022/12/19 08:02:20;;;;;;;23.40;14.03;;;;;;;;;;5046877;28;20207;-68
2022/12/19 08:04:51;;;;;;;17.47;11.50;;;;;;;;;;5051960;28;20234;-68
2022/12/19 08:07:19;;;;;;;16.87;11.37;;;;;;;;;;5075050;28;20289;-68
2022/12/19 08:09:51;;;;;;;19.23;11.97;;;;;;;;;;5062201;28;20223;-68
2022/12/19 08:12:21;;;;;;;16.40;11.10;;;;;;;;;;5072186;28;20207;-68
2022/12/19 08:14:53;;;;;;;14.93;10.67;;;;;;;;;;5065399;28;20337;-68
2022/12/19 08:17:21;;;;;;;16.17;10.90;;;;;;;;;;5064696;28;20205;-66
2022/12/19 08:19:54;;;;;;;15.83;10.90;;;;;;;;;;5050928;28;20203;-68
2022/12/19 08:22:22;;;;;;;13.80;10.40;;;;;;;;;;5067783;28;20206;-68
2022/12/19 08:24:50;;;;;;;17.43;11.57;;;;;;;;;;5069595;28;20199;-68
2022/12/19 08:27:23;;;;;;;15.23;10.23;;;;;;;;;;5063503;28;20197;-66
2022/12/19 08:30:02;;;;;;;18.23;10.60;;;;;;;;;;5065475;28;20227;-66
2022/12/19 08:32:32;;;;;;;16.03;10.43;;;;;;;;;;5043805;28;20260;-67
2022/12/19 08:35:01;;;;;;;16.27;10.07;;;;;;;;;;5047018;28;20194;-68
2022/12/19 08:37:29;;;;;;;14.10;9.70;;;;;;;;;;5050767;28;20207;-68
2022/12/19 08:40:02;;;;;;;15.47;10.30;;;;;;;;;;5068834;28;20198;-67
2022/12/19 08:42:40;;;;;;;14.03;9.13;;;;;;;;;;5057987;28;20284;-68
2022/12/19 08:45:08;;;;;;;17.07;10.83;;;;;;;;;;5068545;28;20256;-68
2022/12/19 08:47:38;;;;;;;14.07;9.80;;;;;;;;;;5067646;28;20199;-68
2022/12/19 08:50:07;;;;;;;16.67;10.43;;;;;;;;;;5051861;28;20230;-68
2022/12/19 08:52:35;;;;;;;15.63;9.67;;;;;;;;;;5050024;28;20216;-68
2022/12/19 08:55:02;;;;;;;12.80;9.10;;;;;;;;;;5053870;28;20219;-66
2022/12/19 08:57:31;;;;;;;13.17;8.97;;;;;;;;;;5058962;28;20201;-68
2022/12/19 08:59:58;;;;;;;13.07;9.20;;;;;;;;;;5060093;28;20195;-68
2022/12/19 09:02:27;;;;;;;12.70;9.00;;;;;;;;;;5053663;28;20207;-67
2022/12/19 09:04:54;;;;;;;13.93;9.80;;;;;;;;;;5059740;28;20235;-66
2022/12/19 09:07:21;;;;;;;12.43;9.33;;;;;;;;;;5053817;28;20199;-66
2022/12/19 09:09:50;;;;;;;13.73;9.00;;;;;;;;;;5062977;28;20207;-68
2022/12/19 09:12:17;;;;;;;12.60;8.93;;;;;;;;;;5065879;28;20243;-66
2022/12/19 09:14:47;;;;;;;14.00;9.37;;;;;;;;;;5065054;28;20210;-67
2022/12/19 09:17:14;;;;;;;10.83;8.30;;;;;;;;;;5065257;28;20199;-67
2022/12/19 09:19:42;;;;;;;10.83;8.63;;;;;;;;;;5069301;28;20210;-68
2022/12/19 09:22:09;;;;;;;13.47;8.10;;;;;;;;;;5064139;28;20199;-67
2022/12/19 09:24:36;;;;;;;13.17;8.37;;;;;;;;;;5058185;28;20206;-68
2022/12/19 09:27:06;;;;;;;14.47;8.10;;;;;;;;;;5059121;28;20199;-68
2022/12/19 09:29:34;;;;;;;11.07;7.23;;;;;;;;;;5064357;28;20277;-67
2022/12/19 09:32:02;;;;;;;10.60;7.07;;;;;;;;;;5071877;28;20195;-67
2022/12/19 09:34:30;;;;;;;10.63;7.53;;;;;;;;;;5071819;28;20198;-68
2022/12/19 09:36:57;;;;;;;9.23;7.73;;;;;;;;;;5069718;28;20203;-68
2022/12/19 09:39:24;;;;;;;10.70;7.97;;;;;;;;;;5070951;28;20198;-68
2022/12/19 09:41:59;;;;;;;10.23;7.47;;;;;;;;;;5070307;28;20202;-68
2022/12/19 09:44:32;;;;;;;13.07;7.80;;;;;;;;;;5063308;28;20202;-67
2022/12/19 09:47:01;;;;;;;9.53;7.27;;;;;;;;;;5063846;28;20225;-68
2022/12/19 09:49:34;;;;;;;10.37;8.17;;;;;;;;;;5068319;28;20254;-67
2022/12/19 09:52:03;;;;;;;12.87;8.30;;;;;;;;;;5066319;28;20202;-66
2022/12/19 09:54:34;;;;;;;13.13;8.47;;;;;;;;;;5060229;28;20258;-65
2022/12/19 09:57:05;;;;;;;10.90;7.73;;;;;;;;;;5064686;28;20203;-66
2022/12/19 09:59:33;;;;;;;11.60;7.77;;;;;;;;;;5067549;28;20473;-66
2022/12/19 10:02:15;;;;;;;9.07;6.87;;;;;;;;;;5069067;28;20205;-66
2022/12/19 10:04:48;;;;;;;10.03;7.60;;;;;;;;;;5072373;28;20242;-66
2022/12/19 10:07:16;;;;;;;9.23;7.07;;;;;;;;;;5068266;28;20203;-66
2022/12/19 10:09:43;;;;;;;10.33;7.00;;;;;;;;;;5064873;28;20225;-67
2022/12/19 10:12:18;;;;;;;11.20;7.40;;;;;;;;;;5067896;28;20215;-66
2022/12/19 10:14:56;;;;;;;11.40;7.80;;;;;;;;;;5063378;28;20221;-65
2022/12/19 10:17:26;;;;;;;11.97;7.50;;;;;;;;;;5061169;28;20210;-66
2022/12/19 10:20:04;;;;;;;10.00;6.80;;;;;;;;;;5060458;28;20203;-66
2022/12/19 10:22:38;;;;;;;9.37;7.00;;;;;;;;;;5067805;28;20199;-65
2022/12/19 10:25:26;;;;;;;9.67;7.33;;;;;;;;;;5062340;28;20194;-64
2022/12/19 10:27:56;;;;;;;8.60;6.43;;;;;;;;;;5058277;28;20198;-66
2022/12/19 10:30:24;;;;;;;9.37;6.90;;;;;;;;;;5073476;28;20285;-66
2022/12/19 10:32:58;;;;;;;9.47;6.73;;;;;;;;;;5054496;28;20211;-66
2022/12/19 10:35:30;;;;;;;9.23;6.53;;;;;;;;;;5071036;28;20222;-66
2022/12/19 10:38:06;;;;;;;8.93;6.80;;;;;;;;;;5071141;28;20289;-64
2022/12/19 10:40:34;;;;;;;9.67;6.70;;;;;;;;;;5068168;28;20502;-65
2022/12/19 10:43:07;;;;;;;8.33;6.33;;;;;;;;;;5068588;28;20227;-65
2022/12/19 10:45:38;;;;;;;7.77;5.87;;;;;;;;;;5068460;28;20286;-65
2022/12/19 10:48:07;;;;;;;6.47;5.77;;;;;;;;;;5062936;28;20200;-63
2022/12/19 10:50:37;;;;;;;7.33;5.70;;;;;;;;;;5067279;28;20226;-65
2022/12/19 10:53:09;;;;;;;10.30;6.00;;;;;;;;;;5059135;28;20325;-65
2022/12/19 10:55:42;;;;;;;7.10;5.70;;;;;;;;;;5072492;28;20244;-65
2022/12/19 10:58:19;;;;;;;9.07;5.87;;;;;;;;;;5072894;28;20203;-65
2022/12/19 11:00:48;;;;;;;7.30;5.37;;;;;;;;;;5067106;28;20195;-66
2022/12/19 11:03:17;;;;;;;8.73;6.17;;;;;;;;;;5062000;28;20209;-65
2022/12/19 11:05:51;;;;;;;7.63;5.70;;;;;;;;;;5066009;28;20235;-66
2022/12/19 11:08:22;;;;;;;9.53;5.93;;;;;;;;;;5066838;28;20198;-65
2022/12/19 11:10:51;;;;;;;9.43;6.03;;;;;;;;;;5050927;28;20215;-66
2022/12/19 11:13:23;;;;;;;10.43;6.10;;;;;;;;;;5059729;28;20218;-63
2022/12/19 11:15:52;;;;;;;8.97;5.97;;;;;;;;;;5053833;28;20202;-66
2022/12/19 11:18:23;;;;;;;11.20;6.73;;;;;;;;;;5061821;28;20226;-66
2022/12/19 11:21:08;;;;;;;8.00;5.70;;;;;;;;;;5067350;28;20319;-66
2022/12/19 11:23:53;;;;;;;7.93;5.50;;;;;;;;;;5062150;28;20206;-65
2022/12/19 11:26:31;;;;;;;8.50;5.93;;;;;;;;;;5065930;28;20214;-65
2022/12/19 11:29:03;;;;;;;9.43;6.40;;;;;;;;;;5061647;28;20207;-66
2022/12/19 11:31:38;;;;;;;8.60;6.03;;;;;;;;;;5059688;28;20222;-66
2022/12/19 11:34:14;;;;;;;7.20;5.17;;;;;;;;;;5066314;28;20194;-66
2022/12/19 11:36:45;;;;;;;8.70;5.70;;;;;;;;;;5059022;28;20272;-66
2022/12/19 11:39:21;;;;;;;7.37;5.30;;;;;;;;;;5055137;28;20199;-66
2022/12/19 11:41:59;;;;;;;6.37;5.20;;;;;;;;;;5068987;28;20210;-66
2022/12/19 11:44:30;;;;;;;8.97;5.50;;;;;;;;;;5069340;28;20201;-66
2022/12/19 11:47:00;;;;;;;6.97;5.23;;;;;;;;;;5066624;28;20206;-62
2022/12/19 11:49:32;;;;;;;6.03;5.43;;;;;;;;;;5067998;28;20197;-64
2022/12/19 11:52:05;;;;;;;9.23;5.40;;;;;;;;;;5054332;28;20223;-65
2022/12/19 11:54:37;;;;;;;7.83;5.53;;;;;;;;;;5050911;28;20209;-64
2022/12/19 11:57:04;;;;;;;7.57;5.23;;;;;;;;;;5064914;28;20203;-64
2022/12/19 11:59:32;;;;;;;8.17;6.03;;;;;;;;;;5062834;28;20202;-64
2022/12/19 12:02:13;;;;;;;12.40;7.13;;;;;;;;;;5062480;28;20199;-66
2022/12/19 12:04:50;;;;;;;11.87;8.03;;;;;;;;;;5063449;28;20239;-66
2022/12/19 12:07:17;;;;;;;8.97;6.57;;;;;;;;;;5065577;28;20199;-63
2022/12/19 12:09:51;;;;;;;11.43;6.90;;;;;;;;;;5063659;28;20841;-65
2022/12/19 12:12:23;;;;;;;8.43;6.03;;;;;;;;;;5065068;28;20198;-64
2022/12/19 12:15:00;;;;;;;9.73;7.00;;;;;;;;;;5047503;28;21526;-64
2022/12/19 12:17:35;;;;;;;10.00;6.20;;;;;;;;;;5064843;28;20510;-63
2022/12/19 12:20:11;;;;;;;6.87;5.23;;;;;;;;;;5064395;28;20202;-63
2022/12/19 12:22:46;;;;;;;8.13;5.20;;;;;;;;;;5066627;28;20290;-63
2022/12/19 12:25:29;;;;;;;7.43;4.40;;;;;;;;;;5068285;28;20194;-63
2022/12/19 12:28:02;;;;;;;8.13;5.83;;;;;;;;;;5048246;28;20203;-64
2022/12/19 12:30:36;;;;;;;7.63;4.70;;;;;;;;;;5050657;28;20323;-64
2022/12/19 12:33:09;;;;;;;6.93;4.80;;;;;;;;;;5066131;28;20206;-64
2022/12/19 12:35:38;;;;;;;5.63;4.37;;;;;;;;;;5071892;28;20207;-64
2022/12/19 12:38:30;;;;;;;7.07;5.00;;;;;;;;;;5063931;28;20221;-62
2022/12/19 12:41:11;;;;;;;6.33;4.87;;;;;;;;;;5061611;28;20272;-64
2022/12/19 12:43:50;;;;;;;4.83;4.30;;;;;;;;;;5064244;28;20195;-64
2022/12/19 12:46:22;;;;;;;6.57;4.83;;;;;;;;;;5058990;28;20198;-64
2022/12/19 12:48:52;;;;;;;5.77;4.33;;;;;;;;;;5043983;28;20198;-64
2022/12/19 12:51:20;;;;;;;5.83;4.67;;;;;;;;;;5062114;28;20208;-63
2022/12/19 12:53:48;;;;;;;5.33;4.23;;;;;;;;;;5067446;28;20195;-63
2022/12/19 12:56:17;;;;;;;8.17;4.83;;;;;;;;;;5062907;28;20228;-64
2022/12/19 12:59:03;;;;;;;6.90;4.40;;;;;;;;;;5064454;28;20198;-64
2022/12/19 13:01:38;;;;;;;6.90;4.83;;;;;;;;;;5061758;28;20206;-64
2022/12/19 13:04:10;;;;;;;5.37;4.87;;;;;;;;;;5043476;28;20230;-63
2022/12/19 13:06:40;;;;;;;5.43;4.67;;;;;;;;;;5062012;28;20210;-63
2022/12/19 13:09:21;;;;;;;8.23;5.43;;;;;;;;;;5060869;28;20206;-64
2022/12/19 13:14:51;;;;;;;8.07;5.60;;;;;;;;;;5057632;28;20274;-63
2022/12/19 13:17:46;;;;;;;5.40;4.90;;;;;;;;;;5044386;28;20234;-63
2022/12/19 13:20:32;;;;;;;5.27;4.37;;;;;;;;;;5064959;28;20230;-63
2022/12/19 13:23:04;;;;;;;4.83;4.10;;;;;;;;;;5064751;28;20203;-63
2022/12/19 13:25:51;;;;;;;5.43;4.50;;;;;;;;;;5066676;28;20198;-63
2022/12/19 13:28:36;;;;;;;8.43;5.00;;;;;;;;;;5066120;28;20211;-63
2022/12/19 13:31:39;;;;;;;10.60;6.17;;;;;;;;;;5049352;28;20218;-62
2022/12/19 13:34:18;;;;;;;9.97;8.30;;;;;;;;;;5065678;28;20199;-63
2022/12/19 13:36:47;;;;;;;5.90;4.70;;;;;;;;;;5064175;28;20199;-63
2022/12/19 13:39:24;;;;;;;6.70;5.57;;;;;;;;;;5063181;28;20315;-63
2022/12/19 13:44:41;;;;;;;5.50;4.23;;;;;;;;;;5030325;28;20256;-64
2022/12/19 13:47:08;;;;;;;5.30;4.10;;;;;;;;;;5062681;28;20211;-63
2022/12/19 13:49:37;;;;;;;5.67;4.40;;;;;;;;;;5058443;28;20203;-63
2022/12/19 13:52:05;;;;;;;5.07;4.00;;;;;;;;;;5063374;28;20256;-62
2022/12/19 13:54:34;;;;;;;6.70;3.90;;;;;;;;;;5062945;28;20203;-63
2022/12/19 13:57:02;;;;;;;4.60;4.20;;;;;;;;;;5068500;28;20211;-63
2022/12/19 13:59:33;;;;;;;6.40;4.57;;;;;;;;;;5062555;28;20203;-63
2022/12/19 14:02:07;;;;;;;4.77;4.03;;;;;;;;;;5065167;28;20207;-63
2022/12/19 14:04:34;;;;;;;9.03;4.60;;;;;;;;;;5063950;28;20241;-64
2022/12/19 14:07:04;;;;;;;6.43;4.00;;;;;;;;;;5067121;28;20202;-63
2022/12/19 14:09:34;;;;;;;5.67;4.50;;;;;;;;;;5067230;28;20194;-63
2022/12/19 14:12:03;;;;;;;7.23;4.47;;;;;;;;;;5065878;28;20208;-63
2022/12/19 14:17:16;;;;;;;5.93;3.90;;;;;;;;;;5072802;28;20194;-63
2022/12/19 14:19:45;;;;;;;6.83;4.30;;;;;;;;;;5073425;28;20206;-63
2022/12/19 14:22:14;;;;;;;5.43;4.47;;;;;;;;;;5075270;28;20199;-64
2022/12/19 14:24:41;;;;;;;5.50;4.57;;;;;;;;;;5071334;28;20369;-64
2022/12/19 14:27:12;;;;;;;7.93;6.00;;;;;;;;;;5068853;28;20202;-64
2022/12/19 14:29:41;;;;;;;7.40;6.50;;;;;;;;;;5072986;28;20230;-64
2022/12/19 14:32:09;;;;;;;6.07;5.00;;;;;;;;;;5069874;28;20214;-64
2022/12/19 14:34:36;;;;;;;5.10;4.43;;;;;;;;;;5071395;28;20228;-64
2022/12/19 14:37:03;;;;;;;5.97;4.00;;;;;;;;;;5069718;28;20203;-64
2022/12/19 14:39:33;;;;;;;5.67;4.80;;;;;;;;;;5072117;28;20270;-64
2022/12/19 14:44:50;;;;;;;5.97;4.40;;;;;;;;;;5069162;28;20202;-64
2022/12/19 14:47:22;;;;;;;7.37;4.67;;;;;;;;;;5073241;28;20217;-64
2022/12/19 14:49:50;;;;;;;6.30;4.70;;;;;;;;;;5068372;28;20213;-63
2022/12/19 14:52:34;;;;;;;5.40;4.23;;;;;;;;;;5074061;28;20198;-64
2022/12/19 14:55:15;;;;;;;5.10;3.87;;;;;;;;;;5075680;28;20191;-64
2022/12/19 14:57:43;;;;;;;4.67;4.27;;;;;;;;;;5071448;28;20213;-64
2022/12/19 15:00:27;;;;;;;6.43;4.23;;;;;;;;;;5074793;28;20206;-64
2022/12/19 15:02:54;;;;;;;5.77;5.20;;;;;;;;;;5067786;28;20203;-64